Time;durP1;ratioP1;P1;durP2;ratioP2;P2;SDS_P1;SDS_P2;PMS_P1;PMS_P2;Temp;Humidity;BMP_temperature;BMP_pressure;BME280_temperature;BME280_humidity;BME280_pressure;Samples;Min_cycle;Max_cycle;Signal;HPM_P1;HPM_P2
2021/12/11 00:01:40;;;;;;;0.13;0.13;;;;;;;7.66;68.39;100665.00;5055055;28;20021;-82
2021/12/11 00:04:16;;;;;;;0.20;0.20;;;;;;;7.64;67.85;100669.44;5040230;28;20017;-84
2021/12/11 00:06:46;;;;;;;0.10;0.10;;;;;;;7.65;68.40;100673.81;5060983;28;20468;-82
2021/12/11 00:09:21;;;;;;;0.10;0.10;;;;;;;7.69;68.13;100678.16;5064800;28;20032;-78
2021/12/11 00:11:55;;;;;;;0.10;0.10;;;;;;;7.67;68.30;100679.94;5048328;28;20112;-82
2021/12/11 00:14:27;;;;;;;3.72;2.05;;;;;;;7.65;68.43;100684.38;5066742;28;20557;-82
2021/12/11 00:16:53;;;;;;;0.10;0.10;;;;;;;7.66;68.42;100682.59;5035547;28;20554;-79
2021/12/11 00:19:24;;;;;;;0.20;0.20;;;;;;;7.70;68.12;100694.84;5060836;28;20039;-84
2021/12/11 00:21:51;;;;;;;0.20;0.20;;;;;;;7.67;67.92;100694.91;5053967;28;20502;-77
2021/12/11 00:24:26;;;;;;;0.73;0.73;;;;;;;7.68;68.42;100708.06;5063953;28;20415;-82
2021/12/11 00:27:10;;;;;;;0.10;0.10;;;;;;;7.74;68.40;100720.31;5062028;28;20058;-84
2021/12/11 00:29:38;;;;;;;1.55;1.15;;;;;;;7.63;68.18;100716.88;5053920;28;20112;-81
2021/12/11 00:32:09;;;;;;;0.47;0.47;;;;;;;7.64;68.44;100716.91;5065987;28;20032;-83
2021/12/11 00:34:38;;;;;;;0.10;0.10;;;;;;;7.56;68.16;100719.63;5059544;28;20033;-83
2021/12/11 00:37:07;;;;;;;0.10;0.10;;;;;;;7.59;68.29;100724.00;5067210;28;20107;-80
2021/12/11 00:39:42;;;;;;;0.20;0.20;;;;;;;7.63;68.15;100733.59;5053117;28;20108;-85
2021/12/11 00:42:12;;;;;;;0.60;0.60;;;;;;;7.62;68.20;100742.41;5063255;28;20116;-83
2021/12/11 00:47:26;;;;;;;0.60;0.60;;;;;;;7.58;68.02;100749.47;5060354;28;20773;-80
2021/12/11 00:55:34;;;;;;;0.45;0.38;;;;;;;7.61;68.16;100759.09;5128010;27;20380;-76
2021/12/11 00:58:18;;;;;;;0.57;0.57;;;;;;;7.65;68.10;100765.22;5095453;28;20059;-76
2021/12/11 01:04:10;;;;;;;0.77;0.77;;;;;;;7.64;67.87;100776.66;5075325;27;20352;-81
2021/12/11 01:06:47;;;;;;;0.10;0.10;;;;;;;7.64;67.68;100790.72;5052419;28;20048;-85
2021/12/11 01:09:18;;;;;;;0.10;0.10;;;;;;;7.60;67.91;100789.00;5036278;28;20051;-84
2021/12/11 01:11:50;;;;;;;1.98;1.88;;;;;;;7.61;68.07;100796.03;5059368;28;20041;-85
2021/12/11 01:14:34;;;;;;;0.10;0.10;;;;;;;7.62;67.98;100795.13;5059565;28;20021;-84
2021/12/11 01:19:47;;;;;;;0.25;0.25;;;;;;;7.61;68.17;100801.28;5078959;27;20423;-85
2021/12/11 01:22:31;;;;;;;0.10;0.10;;;;;;;7.64;68.32;100806.56;5072469;28;20025;-85
2021/12/11 01:24:58;;;;;;;0.10;0.10;;;;;;;7.60;67.55;100810.97;5069190;28;20029;-85
2021/12/11 01:27:26;;;;;;;0.10;0.10;;;;;;;7.60;68.32;100820.63;5070321;28;20029;-85
2021/12/11 01:29:59;;;;;;;0.35;0.35;;;;;;;7.61;67.62;100828.56;5073638;28;20031;-81
2021/12/11 01:32:27;;;;;;;0.20;0.20;;;;;;;7.62;68.09;100839.97;5070361;28;20040;-78
2021/12/11 01:34:55;;;;;;;0.10;0.10;;;;;;;7.62;67.88;100845.25;5072123;28;20028;-85
2021/12/11 01:37:22;;;;;;;0.10;0.10;;;;;;;7.61;68.20;100846.13;5057234;28;20381;-82
2021/12/11 01:39:50;;;;;;;0.10;0.10;;;;;;;7.65;68.17;100845.22;5059235;28;20079;-85
2021/12/11 01:42:27;;;;;;;0.20;0.20;;;;;;;7.70;68.17;100859.25;5083667;28;20017;-84
2021/12/11 01:44:55;;;;;;;0.10;0.10;;;;;;;7.67;67.78;100853.13;5083439;28;20413;-85
2021/12/11 01:47:29;;;;;;;0.25;0.25;;;;;;;7.71;68.21;100861.00;5085258;28;20047;-85
2021/12/11 01:50:15;;;;;;;0.30;0.30;;;;;;;7.73;68.16;100861.84;5075025;28;20025;-82
2021/12/11 01:53:00;;;;;;;0.10;0.10;;;;;;;7.75;67.96;100869.75;5070066;28;20093;-84
2021/12/11 01:55:53;;;;;;;0.15;0.15;;;;;;;7.75;68.31;100873.28;5082375;28;20143;-84
2021/12/11 01:58:34;;;;;;;0.40;0.40;;;;;;;7.78;67.78;100883.78;5082609;28;20055;-85
2021/12/11 02:01:09;;;;;;;0.55;0.55;;;;;;;7.75;68.18;100877.66;5082619;28;20525;-85
2021/12/11 02:03:37;;;;;;;0.10;0.10;;;;;;;7.71;68.05;100892.66;5072746;28;20029;-86
2021/12/11 02:06:04;;;;;;;0.10;0.10;;;;;;;7.68;68.14;100887.38;5088996;28;20542;-83
2021/12/11 02:08:35;;;;;;;0.57;0.57;;;;;;;7.66;67.85;100899.69;5082859;28;20041;-82
2021/12/11 02:11:10;;;;;;;0.10;0.10;;;;;;;7.64;67.74;100905.88;5082550;28;20040;-85
2021/12/11 02:13:47;;;;;;;0.30;0.30;;;;;;;7.64;67.53;100914.69;5086378;28;20040;-74
2021/12/11 02:16:18;;;;;;;0.10;0.10;;;;;;;7.56;67.54;100912.09;5074307;28;20379;-76
2021/12/11 02:18:46;;;;;;;1.70;1.60;;;;;;;7.56;68.34;100916.47;5077894;28;20033;-74
2021/12/11 02:21:23;;;;;;;0.80;0.80;;;;;;;7.58;68.42;100915.56;5083486;28;20471;-83
2021/12/11 02:23:57;;;;;;;0.20;0.20;;;;;;;7.57;68.12;100920.88;5075552;28;20029;-81
2021/12/11 02:26:25;;;;;;;0.10;0.10;;;;;;;7.52;68.18;100925.31;5084103;28;20758;-75
2021/12/11 02:29:16;;;;;;;0.38;0.38;;;;;;;7.52;67.84;100933.22;5077353;28;20036;-82
2021/12/11 02:31:50;;;;;;;0.28;0.28;;;;;;;7.51;68.13;100937.59;5072146;28;20538;-83
2021/12/11 02:34:29;;;;;;;1.67;1.58;;;;;;;7.47;68.21;100941.13;5064485;28;20063;-84
2021/12/11 02:39:52;;;;;;;0.95;0.95;;;;;;;7.52;68.07;100954.31;4962776;27;3388642;-83
2021/12/11 02:42:42;;;;;;;1.50;0.45;;;;;;;7.50;67.77;100950.78;5062658;28;20387;-83
2021/12/11 02:45:19;;;;;;;0.60;0.60;;;;;;;7.48;67.61;100953.44;5069166;28;20041;-83
2021/12/11 02:47:51;;;;;;;0.10;0.10;;;;;;;7.48;68.15;100958.72;5038164;28;20041;-83
2021/12/11 02:53:32;;;;;;;0.10;0.10;;;;;;;7.50;67.64;100964.88;5111602;27;20723;-85
2021/12/11 02:58:50;;;;;;;0.40;0.40;;;;;;;7.42;67.98;100964.88;4932737;27;4022125;-84
2021/12/11 03:01:26;;;;;;;1.42;1.33;;;;;;;7.42;68.06;100970.16;5051148;28;20038;-85
2021/12/11 03:04:17;;;;;;;0.40;0.40;;;;;;;7.47;68.11;100977.19;5050359;28;20021;-84
2021/12/11 03:06:46;;;;;;;0.40;0.40;;;;;;;7.42;67.69;100966.66;5041233;28;20059;-83
2021/12/11 03:09:18;;;;;;;0.10;0.10;;;;;;;7.45;68.15;100969.25;5050047;28;20029;-77
2021/12/11 03:11:45;;;;;;;0.13;0.13;;;;;;;7.44;68.18;100971.03;5050554;28;20037;-84
2021/12/11 03:14:14;;;;;;;4.13;0.68;;;;;;;7.43;68.20;100973.69;5049518;28;20116;-78
2021/12/11 03:16:44;;;;;;;0.45;0.45;;;;;;;7.39;68.03;100975.44;5049903;28;20045;-84
2021/12/11 03:19:15;;;;;;;0.55;0.55;;;;;;;7.37;68.19;100976.34;5049898;28;20071;-84
2021/12/11 03:21:42;;;;;;;0.20;0.20;;;;;;;7.33;67.99;100983.38;5049480;28;20086;-80
2021/12/11 03:24:10;;;;;;;0.47;0.47;;;;;;;7.31;68.14;100987.78;5048971;28;20032;-83
2021/12/11 03:26:39;;;;;;;1.05;1.05;;;;;;;7.34;67.94;100984.25;5023511;28;20037;-82
2021/12/11 03:29:07;;;;;;;0.40;0.40;;;;;;;7.34;68.10;100984.25;5049592;28;20021;-76
2021/12/11 03:31:36;;;;;;;0.20;0.20;;;;;;;7.34;68.15;100993.06;5049669;28;20033;-82
2021/12/11 03:34:07;;;;;;;1.10;1.10;;;;;;;7.37;67.77;100993.03;5048897;28;20542;-79
2021/12/11 03:36:35;;;;;;;0.10;0.10;;;;;;;7.35;68.17;100986.91;5049423;28;20032;-82
2021/12/11 03:39:10;;;;;;;0.82;0.82;;;;;;;7.40;67.91;100993.03;5049370;28;20167;-84
2021/12/11 03:41:38;;;;;;;0.38;0.38;;;;;;;7.35;68.18;100994.81;5049827;28;20455;-84
2021/12/11 03:44:05;;;;;;;0.35;0.35;;;;;;;7.41;68.29;101004.44;5049077;28;20472;-85
2021/12/11 03:46:32;;;;;;;0.40;0.40;;;;;;;7.38;68.19;101013.25;5049663;28;20021;-80
2021/12/11 03:49:01;;;;;;;0.30;0.30;;;;;;;7.38;68.58;101018.50;5050266;28;20029;-84
2021/12/11 03:51:32;;;;;;;0.25;0.25;;;;;;;7.40;68.40;101013.22;5050503;28;20509;-83
2021/12/11 03:54:01;;;;;;;0.10;0.10;;;;;;;7.39;68.54;101012.34;5033764;28;20021;-85
2021/12/11 03:56:27;;;;;;;0.38;0.35;;;;;;;7.38;68.32;101010.59;5050058;28;20040;-81
2021/12/11 03:58:54;;;;;;;0.20;0.20;;;;;;;7.38;68.57;101010.59;5049780;28;20036;-83
2021/12/11 04:01:29;;;;;;;0.32;0.32;;;;;;;7.38;68.56;101017.66;5050123;28;20033;-84
2021/12/11 04:03:59;;;;;;;0.22;0.22;;;;;;;7.30;68.82;101012.38;5033702;28;20029;-77
2021/12/11 04:06:26;;;;;;;0.30;0.30;;;;;;;7.28;68.93;101008.88;5050017;28;20048;-84
2021/12/11 04:08:54;;;;;;;0.10;0.10;;;;;;;7.19;68.71;101006.28;5046702;28;20536;-81
2021/12/11 04:11:26;;;;;;;5.28;1.10;;;;;;;7.22;68.33;101015.03;5036686;28;20037;-85
2021/12/11 04:13:58;;;;;;;0.77;0.77;;;;;;;7.17;68.59;101015.97;5036615;28;20021;-82
2021/12/11 04:16:24;;;;;;;0.57;0.57;;;;;;;7.13;68.18;101015.09;5037001;28;20064;-77
2021/12/11 04:18:51;;;;;;;0.17;0.17;;;;;;;7.09;68.42;101015.97;5036401;28;20067;-80
2021/12/11 04:21:19;;;;;;;0.75;0.75;;;;;;;6.98;68.65;101016.00;5036901;28;20026;-84
2021/12/11 04:23:45;;;;;;;0.73;0.73;;;;;;;6.91;68.73;101019.53;5036331;28;20381;-79
2021/12/11 04:26:17;;;;;;;0.65;0.65;;;;;;;6.86;68.49;101027.44;5019199;28;20492;-85
2021/12/11 04:28:46;;;;;;;1.10;1.10;;;;;;;6.88;68.32;101030.06;5035167;28;20033;-81
2021/12/11 04:31:24;;;;;;;0.10;0.10;;;;;;;6.92;68.46;101040.59;5036234;28;20030;-85
2021/12/11 04:33:53;;;;;;;0.20;0.20;;;;;;;6.94;68.72;101053.75;5035769;28;20044;-82
2021/12/11 04:36:25;;;;;;;1.20;1.20;;;;;;;7.05;68.39;101052.00;5036425;28;20065;-81
2021/12/11 04:38:53;;;;;;;0.55;0.55;;;;;;;7.06;68.67;101051.09;5036435;28;20026;-85
2021/12/11 04:41:28;;;;;;;0.20;0.20;;;;;;;7.11;68.40;101048.47;5018297;28;20033;-82
2021/12/11 04:43:58;;;;;;;0.10;0.10;;;;;;;7.01;68.77;101047.59;5034990;28;20029;-81
2021/12/11 04:46:24;;;;;;;0.40;0.40;;;;;;;6.95;68.78;101052.88;5036411;28;20022;-85
2021/12/11 04:49:02;;;;;;;0.13;0.13;;;;;;;7.02;69.19;101054.63;5018244;28;20470;-85
2021/12/11 04:51:42;;;;;;;1.65;0.73;;;;;;;7.03;69.03;101061.66;5019843;28;20117;-85
2021/12/11 04:54:55;;;;;;;0.10;0.10;;;;;;;7.04;69.03;101046.72;5027085;28;20041;-85
2021/12/11 04:57:24;;;;;;;0.35;0.35;;;;;;;7.03;69.07;101048.47;5035410;28;20119;-81
2021/12/11 05:00:08;;;;;;;0.85;0.85;;;;;;;6.97;69.36;101052.00;5035023;28;20480;-82
2021/12/11 05:12:35;;;;;;;0.30;0.30;;;;;;;7.09;68.98;101058.13;5113615;27;1236802;-85
2021/12/11 05:14:46;;;;;;;0.20;0.20;;;;;;;7.06;69.63;101066.03;5127119;28;20159;-81
2021/12/11 05:17:13;;;;;;;0.13;0.13;;;;;;;7.00;69.21;101069.56;5099933;28;20039;-81
2021/12/11 05:19:41;;;;;;;0.10;0.10;;;;;;;7.05;69.51;101069.56;5111352;28;20032;-83
2021/12/11 05:22:09;;;;;;;0.20;0.20;;;;;;;7.04;70.01;101073.97;5088705;28;20429;-80
2021/12/11 05:24:37;;;;;;;0.20;0.20;;;;;;;7.10;68.95;101073.94;5100642;28;20016;-78
2021/12/11 05:27:04;;;;;;;0.20;0.20;;;;;;;7.17;69.42;101064.25;5111780;28;20112;-84
2021/12/11 05:29:30;;;;;;;1.98;1.05;;;;;;;7.20;69.18;101073.91;5111050;28;20067;-84
2021/12/11 05:32:01;;;;;;;0.20;0.20;;;;;;;7.19;69.45;101078.31;5111157;28;20031;-82
2021/12/11 05:34:27;;;;;;;0.10;0.10;;;;;;;7.25;69.19;101078.31;5111108;28;20024;-82
2021/12/11 05:36:54;;;;;;;2.40;1.92;;;;;;;7.27;69.27;101078.28;5111367;28;20417;-80
2021/12/11 05:39:21;;;;;;;0.15;0.15;;;;;;;7.32;69.14;101083.56;5111923;28;20038;-81
2021/12/11 05:41:49;;;;;;;0.10;0.10;;;;;;;7.32;68.77;101092.34;5111749;28;20035;-84
2021/12/11 05:44:18;;;;;;;1.35;1.25;;;;;;;7.34;69.19;101090.59;5111050;28;20120;-84
2021/12/11 05:46:45;;;;;;;0.22;0.22;;;;;;;7.39;69.12;101095.81;5111209;28;20225;-79
2021/12/11 05:49:12;;;;;;;0.30;0.30;;;;;;;7.37;68.90;101093.19;5111049;28;20050;-83
2021/12/11 05:51:41;;;;;;;0.47;0.47;;;;;;;7.36;68.78;101101.13;5111221;28;20431;-82
2021/12/11 05:54:12;;;;;;;0.10;0.10;;;;;;;7.40;68.86;101102.84;5110977;28;20024;-82
2021/12/11 05:56:40;;;;;;;1.10;1.10;;;;;;;7.39;69.02;101107.25;5111495;28;20399;-83
2021/12/11 05:59:14;;;;;;;0.17;0.17;;;;;;;7.44;68.78;101110.75;5110694;28;20376;-82
2021/12/11 06:01:45;;;;;;;0.10;0.10;;;;;;;7.45;68.68;101109.88;5111295;28;20030;-83
2021/12/11 06:04:18;;;;;;;0.43;0.43;;;;;;;7.45;69.15;101111.63;5109428;28;20487;-84
2021/12/11 06:06:46;;;;;;;1.58;1.52;;;;;;;7.33;68.95;101117.81;5109750;28;20032;-79
2021/12/11 06:09:15;;;;;;;0.20;0.20;;;;;;;7.31;69.33;101119.56;5106322;28;20028;-85
2021/12/11 06:11:43;;;;;;;0.10;0.10;;;;;;;7.32;68.93;101118.69;5110974;28;20048;-83
2021/12/11 06:14:10;;;;;;;0.20;0.20;;;;;;;7.34;68.67;101123.94;5111072;28;20475;-81
2021/12/11 06:16:36;;;;;;;0.13;0.13;;;;;;;7.40;68.62;101127.47;5111104;28;20028;-84
2021/12/11 06:19:05;;;;;;;0.20;0.20;;;;;;;7.41;69.36;101142.41;5110772;28;20049;-84
2021/12/11 06:21:34;;;;;;;0.10;0.10;;;;;;;7.53;70.35;101143.25;5103540;28;20079;-82
2021/12/11 06:24:01;;;;;;;0.13;0.13;;;;;;;7.73;70.41;101149.34;5095568;28;20017;-82
2021/12/11 06:26:27;;;;;;;0.20;0.20;;;;;;;7.91;69.77;101158.06;5096468;28;20378;-81
2021/12/11 06:28:53;;;;;;;0.10;0.10;;;;;;;8.03;69.49;101160.66;5096891;28;20032;-82
2021/12/11 06:31:20;;;;;;;0.10;0.10;;;;;;;8.16;69.81;101169.41;5094795;28;20511;-83
2021/12/11 06:33:48;;;;;;;0.10;0.10;;;;;;;8.19;69.46;101177.31;5077174;28;20029;-83
2021/12/11 06:36:16;;;;;;;0.40;0.40;;;;;;;8.33;69.70;101189.56;5074023;28;20035;-84
2021/12/11 06:38:45;;;;;;;0.10;0.10;;;;;;;8.33;69.28;101195.72;5089700;28;20041;-84
2021/12/11 06:41:15;;;;;;;0.10;0.10;;;;;;;8.42;69.75;101198.31;5077936;28;20032;-79
2021/12/11 06:43:42;;;;;;;0.20;0.20;;;;;;;8.50;69.51;101200.03;5094218;28;20039;-82
2021/12/11 06:46:08;;;;;;;0.20;0.20;;;;;;;8.51;68.85;101212.38;5096929;28;20024;-83
2021/12/11 06:48:35;;;;;;;0.10;0.10;;;;;;;8.53;68.96;101213.25;5095846;28;20073;-84
2021/12/11 06:51:03;;;;;;;0.10;0.10;;;;;;;8.51;68.62;101212.38;5090197;28;20083;-80
2021/12/11 06:53:41;;;;;;;0.20;0.20;;;;;;;8.57;68.29;101222.91;5068547;28;20035;-82
2021/12/11 06:56:10;;;;;;;0.10;0.10;;;;;;;8.60;68.68;101228.19;5070793;28;20360;-81
2021/12/11 06:58:37;;;;;;;0.10;0.10;;;;;;;8.52;68.88;101232.63;5072457;28;20029;-82
2021/12/11 07:01:06;;;;;;;0.00;0.00;;;;;;;8.58;68.14;101235.22;5076808;28;20074;-83
2021/12/11 07:03:33;;;;;;;0.10;0.10;;;;;;;8.53;68.77;101253.72;5063267;28;20032;-82
2021/12/11 07:06:00;;;;;;;0.10;0.10;;;;;;;8.51;68.30;101255.53;5081708;28;20028;-81
2021/12/11 07:08:30;;;;;;;0.10;0.10;;;;;;;8.59;68.26;101252.84;5060139;28;20109;-83
2021/12/11 07:10:57;;;;;;;0.10;0.10;;;;;;;8.43;68.53;101268.69;5064728;28;20532;-83
2021/12/11 07:13:24;;;;;;;0.50;0.50;;;;;;;8.41;68.86;101270.50;5078280;28;20444;-83
2021/12/11 07:15:52;;;;;;;0.20;0.20;;;;;;;8.36;68.52;101277.56;5076280;28;20040;-83
2021/12/11 07:18:19;;;;;;;0.10;0.10;;;;;;;8.34;68.08;101289.88;5077505;28;20032;-84
2021/12/11 07:20:45;;;;;;;0.10;0.10;;;;;;;8.29;67.76;101302.22;5070225;28;20191;-84
2021/12/11 07:23:12;;;;;;;0.52;0.45;;;;;;;8.28;67.95;101305.75;5076557;28;20082;-83
2021/12/11 07:25:44;;;;;;;0.15;0.15;;;;;;;8.29;68.11;101307.50;5064269;28;20119;-84
2021/12/11 07:28:11;;;;;;;0.20;0.20;;;;;;;8.26;67.67;101318.94;5077983;28;20050;-82
2021/12/11 07:30:42;;;;;;;0.10;0.10;;;;;;;8.17;67.88;101318.97;5079304;28;20546;-82
2021/12/11 07:33:09;;;;;;;0.10;0.10;;;;;;;8.09;68.33;101326.91;5074715;28;20036;-83
2021/12/11 07:35:38;;;;;;;0.10;0.10;;;;;;;8.06;67.90;101336.59;5070291;28;20124;-83
2021/12/11 07:38:05;;;;;;;0.10;0.10;;;;;;;8.02;68.50;101340.97;5064068;28;20052;-84
2021/12/11 07:40:35;;;;;;;0.28;0.28;;;;;;;8.01;67.86;101347.16;5080235;28;20052;-81
2021/12/11 07:43:03;;;;;;;0.30;0.30;;;;;;;7.97;68.49;101348.03;5080936;28;20139;-82
2021/12/11 07:45:31;;;;;;;1.00;1.00;;;;;;;7.96;67.92;101351.53;5076541;28;20032;-83
2021/12/11 07:47:57;;;;;;;0.10;0.10;;;;;;;7.92;67.97;101360.34;5062127;28;20028;-84
2021/12/11 07:50:24;;;;;;;0.80;0.80;;;;;;;7.90;67.93;101372.66;5094505;28;20182;-84
2021/12/11 07:52:50;;;;;;;0.10;0.10;;;;;;;7.86;68.50;101377.09;5093999;28;20601;-84
2021/12/11 07:55:17;;;;;;;0.10;0.10;;;;;;;7.83;68.58;101381.47;5093702;28;20418;-84
2021/12/11 07:57:43;;;;;;;0.28;0.28;;;;;;;7.80;68.36;101386.72;5063967;28;20032;-84
2021/12/11 08:00:13;;;;;;;0.10;0.10;;;;;;;7.75;68.10;101394.63;5091986;28;20133;-83
2021/12/11 08:02:39;;;;;;;0.47;0.47;;;;;;;7.71;68.18;101396.44;5072818;28;20039;-83
2021/12/11 08:05:06;;;;;;;0.25;0.25;;;;;;;7.69;68.85;101406.09;5092999;28;20066;-84
2021/12/11 08:07:33;;;;;;;0.10;0.10;;;;;;;7.67;68.54;101417.50;5061887;28;20033;-83
2021/12/11 08:10:00;;;;;;;0.65;0.65;;;;;;;7.61;68.79;101416.63;5080899;28;20027;-83
2021/12/11 08:12:26;;;;;;;1.23;1.13;;;;;;;7.64;68.29;101428.94;5067941;28;20047;-83
2021/12/11 08:14:53;;;;;;;0.10;0.10;;;;;;;7.61;68.86;101434.19;5063184;28;20033;-83
2021/12/11 08:17:20;;;;;;;0.10;0.10;;;;;;;7.53;69.18;101428.91;5056045;28;20212;-78
2021/12/11 08:19:46;;;;;;;0.40;0.40;;;;;;;7.60;68.26;101440.34;5072896;28;20024;-83
2021/12/11 08:22:13;;;;;;;0.20;0.20;;;;;;;7.60;68.85;101449.16;5074272;28;20047;-78
2021/12/11 08:24:40;;;;;;;0.20;0.20;;;;;;;7.62;68.30;101451.78;5093808;28;20031;-82
2021/12/11 08:27:15;;;;;;;0.20;0.20;;;;;;;7.66;68.47;101453.53;5061056;28;20115;-83
2021/12/11 08:29:45;;;;;;;0.15;0.15;;;;;;;7.65;69.18;101467.63;5052392;28;20079;-78
2021/12/11 08:32:12;;;;;;;0.10;0.10;;;;;;;7.70;68.97;101472.88;5057925;28;20631;-84
2021/12/11 08:34:39;;;;;;;0.10;0.10;;;;;;;7.73;69.41;101473.78;5058363;28;20039;-77
2021/12/11 08:37:10;;;;;;;0.93;0.93;;;;;;;7.81;69.26;101480.84;5054330;28;20028;-83
2021/12/11 08:39:37;;;;;;;0.45;0.45;;;;;;;7.86;69.27;101479.06;5056363;28;20032;-85
2021/12/11 08:42:08;;;;;;;0.13;0.13;;;;;;;7.90;69.13;101488.75;5051701;28;20037;-86
2021/12/11 08:44:37;;;;;;;0.10;0.10;;;;;;;7.88;69.49;101496.66;5060571;28;20034;-83
2021/12/11 08:47:07;;;;;;;0.10;0.10;;;;;;;7.89;69.50;101495.78;5056116;28;20499;-78
2021/12/11 08:49:37;;;;;;;0.10;0.10;;;;;;;7.93;68.87;101496.69;5060771;28;20032;-84
2021/12/11 08:52:17;;;;;;;0.17;0.17;;;;;;;7.98;69.40;101501.97;5069224;28;20028;-85
2021/12/11 08:54:43;;;;;;;0.88;0.88;;;;;;;7.91;69.09;101516.91;5059711;28;20107;-84
2021/12/11 08:57:18;;;;;;;0.10;0.10;;;;;;;7.91;69.33;101516.91;5053317;28;20037;-85
2021/12/11 08:59:49;;;;;;;0.20;0.20;;;;;;;7.97;69.52;101519.56;5061182;28;20041;-82
2021/12/11 09:07:48;;;;;;;0.20;0.20;;;;;;;8.01;69.58;101529.25;4906420;27;4973171;-83
2021/12/11 09:13:19;;;;;;;0.10;0.10;;;;;;;8.12;69.63;101538.94;5055729;28;20460;-78
2021/12/11 09:15:55;;;;;;;1.42;0.63;;;;;;;8.13;69.10;101551.25;5036526;28;20038;-85
2021/12/11 09:18:27;;;;;;;0.10;0.10;;;;;;;8.14;69.20;101534.53;5032457;28;20153;-85
2021/12/11 09:20:56;;;;;;;;;;;;;;;8.29;68.80;101550.41;5019572;28;20041;-85
2021/12/11 09:26:09;;;;;;;0.10;0.10;;;;;;;8.25;69.12;101553.91;5036896;27;1463739;-82
2021/12/11 09:34:08;;;;;;;0.35;0.35;;;;;;;8.54;69.39;101561.88;5070274;27;2344943;-81
2021/12/11 09:36:41;;;;;;;0.10;0.10;;;;;;;8.62;68.97;101561.88;5139786;27;20042;-82
2021/12/11 09:39:15;;;;;;;0.20;0.20;;;;;;;8.64;68.93;101561.88;5133420;27;20274;-84
2021/12/11 09:41:43;;;;;;;0.30;0.30;;;;;;;8.64;68.86;101575.09;5128586;28;20035;-86
2021/12/11 09:44:15;;;;;;;0.40;0.40;;;;;;;8.60;68.55;101579.50;5121652;28;20040;-80
2021/12/11 09:46:47;;;;;;;0.10;0.10;;;;;;;8.59;68.77;101585.66;5096963;28;20039;-85
2021/12/11 09:49:19;;;;;;;0.10;0.10;;;;;;;8.61;68.45;101583.91;5120058;28;20397;-88
2021/12/11 09:51:48;;;;;;;0.50;0.50;;;;;;;8.58;68.32;101587.44;5118351;28;20111;-88
2021/12/11 09:54:22;;;;;;;0.00;0.00;;;;;;;8.58;68.32;101590.06;5103585;28;20123;-84
2021/12/11 09:56:54;;;;;;;0.10;0.10;;;;;;;8.60;68.57;101590.06;5119339;28;20470;-83
2021/12/11 09:59:22;;;;;;;0.15;0.15;;;;;;;8.64;68.21;101594.47;5117425;28;20035;-82
2021/12/11 10:01:53;;;;;;;0.55;0.55;;;;;;;8.70;68.32;101594.47;5114551;28;20099;-88
2021/12/11 10:04:28;;;;;;;0.10;0.10;;;;;;;8.77;68.18;101591.81;5122062;28;20035;-83
2021/12/11 10:09:44;;;;;;;0.22;0.22;;;;;;;8.89;68.43;101605.88;5064799;27;20878;-84
2021/12/11 10:12:16;;;;;;;0.10;0.10;;;;;;;8.99;68.32;101611.19;5049981;28;20033;-85
2021/12/11 10:14:47;;;;;;;0.10;0.10;;;;;;;9.05;68.19;101617.34;5050149;28;20115;-86
2021/12/11 10:17:20;;;;;;;0.10;0.10;;;;;;;9.12;67.35;101625.25;5049387;28;20030;-82
2021/12/11 10:19:49;;;;;;;1.23;1.17;;;;;;;9.19;67.77;101627.88;5047117;28;20056;-84
2021/12/11 10:24:56;;;;;;;0.73;0.73;;;;;;;9.33;68.05;101633.16;5093700;27;1467598;-84
2021/12/11 10:27:26;;;;;;;0.30;0.30;;;;;;;9.45;67.71;101649.91;5117997;28;20027;-82
2021/12/11 10:29:54;;;;;;;1.10;1.10;;;;;;;9.57;67.90;101648.97;5104351;28;20107;-84
2021/12/11 10:32:26;;;;;;;0.20;0.20;;;;;;;9.64;67.51;101643.63;5104333;28;20028;-84
2021/12/11 10:34:57;;;;;;;0.10;0.10;;;;;;;9.79;67.55;101640.06;5111197;28;20027;-83
2021/12/11 10:37:29;;;;;;;0.15;0.15;;;;;;;9.91;67.11;101646.22;5110391;28;20058;-85
2021/12/11 10:39:59;;;;;;;0.13;0.13;;;;;;;10.02;66.56;101650.56;5110394;28;20028;-85
2021/12/11 10:42:26;;;;;;;0.32;0.32;;;;;;;10.10;67.78;101657.59;5109888;28;20470;-83
2021/12/11 10:44:56;;;;;;;0.65;0.65;;;;;;;10.21;66.92;101655.75;5110509;28;20055;-85
2021/12/11 10:47:34;;;;;;;1.23;0.57;;;;;;;10.32;66.82;101647.75;5110264;28;20152;-85
2021/12/11 10:50:04;;;;;;;0.10;0.10;;;;;;;10.31;66.59;101646.88;5098507;28;20020;-85
2021/12/11 10:52:31;;;;;;;0.30;0.30;;;;;;;10.34;65.59;101654.81;5105241;28;20040;-80
2021/12/11 10:55:02;;;;;;;0.10;0.10;;;;;;;10.38;64.67;101657.47;5104623;28;20020;-86
2021/12/11 10:57:29;;;;;;;0.82;0.82;;;;;;;10.45;66.44;101662.69;5108370;28;20047;-84
2021/12/11 10:59:58;;;;;;;0.20;0.20;;;;;;;10.49;64.82;101666.22;5105756;28;20016;-85
2021/12/11 11:02:29;;;;;;;0.25;0.25;;;;;;;10.56;66.67;101657.34;5097396;28;20032;-83
2021/12/11 11:04:59;;;;;;;0.10;0.10;;;;;;;10.59;66.32;101660.00;5089296;28;20025;-83
2021/12/11 11:07:27;;;;;;;0.10;0.10;;;;;;;10.61;65.50;101666.13;5107752;28;20035;-83
2021/12/11 11:09:58;;;;;;;0.10;0.10;;;;;;;10.64;65.18;101660.84;5108492;28;20043;-82
2021/12/11 11:12:26;;;;;;;0.45;0.45;;;;;;;10.66;65.21;101651.06;5089240;28;20039;-83
2021/12/11 11:14:54;;;;;;;0.50;0.50;;;;;;;10.70;64.98;101673.16;5088363;28;20067;-83
2021/12/11 11:17:24;;;;;;;0.10;0.10;;;;;;;10.74;64.14;101660.75;5089115;28;20379;-83
2021/12/11 11:19:51;;;;;;;0.10;0.10;;;;;;;10.79;65.03;101661.59;5094158;28;20039;-83
2021/12/11 11:22:22;;;;;;;0.10;0.10;;;;;;;10.81;64.52;101668.63;5089164;28;20024;-83
2021/12/11 11:24:52;;;;;;;0.20;0.20;;;;;;;10.86;66.16;101681.00;5089127;28;20036;-83
2021/12/11 11:27:19;;;;;;;0.20;0.20;;;;;;;10.94;64.67;101689.75;5091951;28;20419;-84
2021/12/11 11:29:47;;;;;;;2.20;2.00;;;;;;;11.00;65.20;101680.00;5088718;28;20028;-83
2021/12/11 11:32:18;;;;;;;0.10;0.10;;;;;;;11.09;65.09;101687.00;5103874;28;20040;-83
2021/12/11 11:34:44;;;;;;;0.10;0.10;;;;;;;11.21;64.70;101677.16;5083549;28;20040;-82
2021/12/11 11:37:15;;;;;;;0.10;0.10;;;;;;;11.25;62.96;101684.19;5075569;28;20031;-83
2021/12/11 11:39:42;;;;;;;0.55;0.55;;;;;;;11.20;62.95;101692.19;5077721;28;20021;-84
2021/12/11 11:42:14;;;;;;;0.17;0.17;;;;;;;11.17;64.58;101697.53;5075818;28;20025;-84
2021/12/11 11:44:43;;;;;;;0.15;0.15;;;;;;;11.17;63.33;101702.84;5080781;28;20487;-83
2021/12/11 11:47:12;;;;;;;0.10;0.10;;;;;;;11.21;64.18;101715.16;5076882;28;20028;-83
2021/12/11 11:49:38;;;;;;;0.10;0.10;;;;;;;11.24;64.10;101704.53;5076753;28;20440;-84
2021/12/11 11:52:09;;;;;;;0.13;0.13;;;;;;;11.28;65.04;101706.25;5076754;28;20107;-84
2021/12/11 11:54:38;;;;;;;0.38;0.38;;;;;;;11.19;62.89;101706.38;5074305;28;20115;-82
2021/12/11 11:57:13;;;;;;;0.17;0.17;;;;;;;11.27;65.03;101719.56;5078471;28;20049;-83
2021/12/11 11:59:40;;;;;;;0.10;0.10;;;;;;;11.04;64.70;101728.59;5084170;28;20106;-81
2021/12/11 12:02:17;;;;;;;0.20;0.20;;;;;;;11.03;64.70;101728.56;5089795;28;20024;-79
2021/12/11 12:04:46;;;;;;;0.10;0.10;;;;;;;11.00;65.48;101724.19;5087906;28;20083;-83
2021/12/11 12:07:13;;;;;;;0.10;0.10;;;;;;;10.88;64.92;101733.13;5089951;28;20545;-82
2021/12/11 12:09:44;;;;;;;0.15;0.15;;;;;;;10.88;65.40;101724.25;5088717;28;20024;-83
2021/12/11 12:12:13;;;;;;;2.25;0.55;;;;;;;10.92;65.65;101728.69;5090573;28;20028;-83
2021/12/11 12:14:41;;;;;;;0.10;0.10;;;;;;;10.94;65.68;101721.56;5090955;28;20028;-83
2021/12/11 12:17:10;;;;;;;0.10;0.10;;;;;;;10.95;65.67;101733.94;5090200;28;20055;-82
2021/12/11 12:19:37;;;;;;;0.32;0.32;;;;;;;10.87;65.22;101734.00;5083981;28;20032;-83
2021/12/11 12:22:07;;;;;;;0.10;0.10;;;;;;;10.76;65.08;101736.72;5081665;28;20032;-84
2021/12/11 12:24:35;;;;;;;0.60;0.60;;;;;;;10.75;65.28;101742.03;5083458;28;20046;-84
2021/12/11 12:27:05;;;;;;;0.10;0.10;;;;;;;10.76;65.31;101734.06;5084482;28;20025;-87
2021/12/11 12:29:32;;;;;;;0.10;0.10;;;;;;;10.83;65.75;101734.94;5080185;28;20024;-83
2021/12/11 12:32:04;;;;;;;0.10;0.10;;;;;;;10.83;65.51;101741.09;5076195;28;20039;-83
2021/12/11 12:34:30;;;;;;;0.20;0.20;;;;;;;10.84;64.82;101741.97;5072169;28;20016;-83
2021/12/11 12:36:58;;;;;;;0.10;0.10;;;;;;;10.83;64.79;101742.88;5072082;28;20029;-84
2021/12/11 12:39:36;;;;;;;0.20;0.20;;;;;;;10.93;65.66;101747.22;5075651;28;20029;-83
2021/12/11 12:42:22;;;;;;;0.20;0.20;;;;;;;11.00;64.86;101753.34;5075833;28;20535;-83